createdAt,value
2023-03-07T00:01:24.924Z,15.40
2023-03-07T00:03:52.936Z,15.40
2023-03-07T00:06:20.941Z,15.40
2023-03-07T00:08:50.975Z,15.30
2023-03-07T00:11:19.033Z,15.40
2023-03-07T00:13:46.903Z,15.30
2023-03-07T00:16:16.928Z,15.40
2023-03-07T00:18:46.538Z,15.40
2023-03-07T00:21:16.046Z,15.40
2023-03-07T00:23:45.660Z,15.50
2023-03-07T00:26:15.291Z,15.50
2023-03-07T00:28:46.408Z,15.40
2023-03-07T00:31:14.545Z,15.40
2023-03-07T00:33:42.363Z,15.50
2023-03-07T00:36:14.734Z,15.50
2023-03-07T00:38:42.701Z,15.50
2023-03-07T00:41:12.621Z,15.50
2023-03-07T00:43:41.580Z,15.50
2023-03-07T00:46:10.135Z,15.50
2023-03-07T00:48:40.189Z,15.50
2023-03-07T00:51:12.094Z,15.50
2023-03-07T00:53:39.973Z,15.50
2023-03-07T00:56:13.092Z,15.50
2023-03-07T00:58:41.437Z,15.60
2023-03-07T01:01:10.128Z,15.50
2023-03-07T01:03:38.442Z,15.50
2023-03-07T01:06:08.623Z,15.40
2023-03-07T01:08:37.857Z,15.50
2023-03-07T01:11:07.278Z,15.50
2023-03-07T01:13:36.174Z,15.60
2023-03-07T01:16:12.467Z,15.60
2023-03-07T01:18:42.486Z,15.60
2023-03-07T01:21:15.529Z,15.60
2023-03-07T01:23:44.812Z,15.60
2023-03-07T01:26:14.351Z,15.60
2023-03-07T01:28:42.443Z,15.70
2023-03-07T01:31:11.165Z,15.60
2023-03-07T01:33:40.948Z,15.60
2023-03-07T01:36:18.146Z,15.60
2023-03-07T01:38:48.889Z,15.50
2023-03-07T01:41:17.873Z,15.60
2023-03-07T01:43:48.579Z,15.50
2023-03-07T01:46:42.480Z,15.50
2023-03-07T01:49:16.811Z,15.50
2023-03-07T01:51:48.659Z,15.60
2023-03-07T01:54:20.248Z,15.50
2023-03-07T01:56:48.572Z,15.60
2023-03-07T01:59:22.345Z,15.60
2023-03-07T02:01:51.011Z,15.60
2023-03-07T02:04:22.925Z,15.50
2023-03-07T02:06:50.977Z,15.50
2023-03-07T02:09:22.104Z,15.50
2023-03-07T02:11:50.961Z,15.60
2023-03-07T02:14:19.503Z,15.60
2023-03-07T02:16:47.685Z,15.60
2023-03-07T02:19:31.291Z,15.60
2023-03-07T02:22:09.533Z,15.60
2023-03-07T02:24:46.865Z,15.60
2023-03-07T02:27:16.337Z,15.60
2023-03-07T02:29:44.424Z,15.50
2023-03-07T02:32:13.677Z,15.50
2023-03-07T02:34:41.537Z,15.50
2023-03-07T02:37:21.130Z,15.50
2023-03-07T02:39:50.252Z,15.60
2023-03-07T02:42:23.943Z,15.50
2023-03-07T02:44:59.139Z,15.50
2023-03-07T02:47:29.050Z,15.50
2023-03-07T02:49:58.460Z,15.50
2023-03-07T02:52:27.860Z,15.60
2023-03-07T02:54:55.891Z,15.60
2023-03-07T02:57:26.753Z,15.50
2023-03-07T02:59:54.585Z,15.50
2023-03-07T03:02:22.707Z,15.60
2023-03-07T03:04:50.568Z,15.60
2023-03-07T03:07:18.638Z,15.60
2023-03-07T03:09:46.415Z,15.60
2023-03-07T03:12:14.201Z,15.60
2023-03-07T03:14:43.359Z,15.60
2023-03-07T03:17:12.303Z,15.60
2023-03-07T03:19:40.085Z,15.60
2023-03-07T03:22:07.892Z,15.50
2023-03-07T03:24:41.072Z,15.50
2023-03-07T03:27:10.785Z,15.40
2023-03-07T03:29:38.931Z,15.30
2023-03-07T03:32:08.920Z,15.30
2023-03-07T03:34:38.176Z,15.30
2023-03-07T03:37:07.772Z,15.30
2023-03-07T03:39:35.764Z,15.30
2023-03-07T03:42:03.611Z,15.20
2023-03-07T03:44:31.420Z,15.20
2023-03-07T03:46:59.480Z,15.10
2023-03-07T03:49:29.110Z,15.20
2023-03-07T03:51:57.151Z,15.10
2023-03-07T03:54:25.492Z,15.20
2023-03-07T03:56:54.759Z,15.20
2023-03-07T03:59:23.135Z,15.20
2023-03-07T04:01:51.797Z,15.10
2023-03-07T04:04:20.487Z,15.10
2023-03-07T04:06:49.893Z,15.00
2023-03-07T04:09:18.200Z,14.90
2023-03-07T04:11:48.352Z,15.00
2023-03-07T04:14:16.318Z,15.00
2023-03-07T04:16:44.163Z,14.90
2023-03-07T04:19:12.853Z,14.80
2023-03-07T04:21:41.027Z,14.80
2023-03-07T04:24:11.084Z,14.80
2023-03-07T04:26:39.164Z,14.90
2023-03-07T04:29:07.040Z,14.90
2023-03-07T04:31:41.973Z,14.90
2023-03-07T04:34:12.365Z,15.00
2023-03-07T04:36:40.845Z,15.00
2023-03-07T04:39:10.119Z,15.00
2023-03-07T04:41:38.162Z,14.90
2023-03-07T04:44:11.158Z,15.00
2023-03-07T04:46:39.008Z,15.00
2023-03-07T04:49:07.131Z,14.90
2023-03-07T04:51:35.181Z,14.90
2023-03-07T04:54:02.972Z,15.00
2023-03-07T04:56:32.196Z,15.00
2023-03-07T04:59:00.572Z,15.10
2023-03-07T05:01:28.564Z,15.10
2023-03-07T05:03:57.419Z,15.10
2023-03-07T05:06:25.636Z,15.20
2023-03-07T05:08:53.813Z,15.20
2023-03-07T05:11:21.939Z,15.20
2023-03-07T05:13:52.048Z,15.20
2023-03-07T05:16:22.420Z,15.30
2023-03-07T05:18:50.658Z,15.30
2023-03-07T05:21:19.084Z,15.20
2023-03-07T05:23:46.958Z,15.30
2023-03-07T05:26:15.040Z,15.30
2023-03-07T05:28:43.115Z,15.30
2023-03-07T05:31:12.663Z,15.20
2023-03-07T05:33:42.535Z,15.20
2023-03-07T05:36:10.879Z,15.20
2023-03-07T05:38:39.296Z,15.20
2023-03-07T05:41:07.146Z,15.10
2023-03-07T05:43:35.293Z,15.10
2023-03-07T05:46:03.414Z,15.10
2023-03-07T05:48:32.627Z,15.10
2023-03-07T05:51:01.163Z,15.10
2023-03-07T05:53:29.223Z,15.10
2023-03-07T05:55:57.071Z,15.20
2023-03-07T05:58:24.973Z,15.10
2023-03-07T06:00:52.827Z,15.20
2023-03-07T06:03:21.191Z,15.10
2023-03-07T06:05:51.842Z,15.20
2023-03-07T06:08:19.720Z,15.30
2023-03-07T06:10:50.522Z,15.30
2023-03-07T06:13:21.488Z,15.30
2023-03-07T06:15:50.889Z,15.30
2023-03-07T06:18:19.808Z,15.30
2023-03-07T06:20:58.536Z,15.20
2023-03-07T06:23:27.682Z,15.20
2023-03-07T06:25:55.640Z,15.20
2023-03-07T06:28:23.817Z,15.30
2023-03-07T06:30:52.233Z,15.10
2023-03-07T06:33:20.279Z,15.10
2023-03-07T06:35:48.379Z,15.20
2023-03-07T06:38:18.514Z,15.10
2023-03-07T06:40:46.560Z,15.20
2023-03-07T06:43:14.437Z,15.30
2023-03-07T06:45:42.526Z,15.30
2023-03-07T06:48:11.678Z,15.30
2023-03-07T06:50:42.088Z,15.30
2023-03-07T06:53:10.058Z,15.30
2023-03-07T06:55:39.318Z,15.30
2023-03-07T06:58:07.982Z,15.30
2023-03-07T07:00:35.923Z,15.30
2023-03-07T07:03:04.248Z,14.90
2023-03-07T07:05:32.248Z,14.20
2023-03-07T07:08:00.255Z,13.80
2023-03-07T07:10:28.242Z,13.60
2023-03-07T07:12:57.958Z,13.60
2023-03-07T07:15:27.671Z,13.60
2023-03-07T07:17:55.497Z,13.60
2023-03-07T07:20:24.790Z,13.50
2023-03-07T07:22:53.569Z,13.50
2023-03-07T07:25:21.395Z,13.30
2023-03-07T07:27:49.263Z,13.30
2023-03-07T07:30:18.719Z,12.60
2023-03-07T07:32:46.711Z,12.20
2023-03-07T07:35:14.918Z,12.00
2023-03-07T07:37:42.880Z,11.60
2023-03-07T07:40:12.416Z,11.30
2023-03-07T07:42:40.944Z,11.80
2023-03-07T07:45:22.547Z,12.20
2023-03-07T07:47:50.753Z,12.60
2023-03-07T07:50:19.907Z,12.70
2023-03-07T07:52:48.319Z,12.50
2023-03-07T07:55:16.844Z,12.40
2023-03-07T07:57:45.275Z,12.80
2023-03-07T08:00:19.312Z,12.40
2023-03-07T08:02:50.289Z,12.70
2023-03-07T08:05:19.365Z,12.60
2023-03-07T08:07:47.784Z,12.30
2023-03-07T08:10:16.425Z,12.60
2023-03-07T08:12:44.742Z,12.40
2023-03-07T08:15:13.599Z,12.50
2023-03-07T08:17:41.408Z,12.60
2023-03-07T08:20:12.011Z,12.70
2023-03-07T08:22:40.385Z,12.40
2023-03-07T08:25:09.301Z,12.60
2023-03-07T08:27:37.176Z,12.80
2023-03-07T08:30:05.586Z,13.00
2023-03-07T08:32:33.431Z,12.80
2023-03-07T08:35:01.259Z,12.80
2023-03-07T08:37:30.515Z,12.70
2023-03-07T08:39:58.330Z,12.80
2023-03-07T08:42:26.726Z,13.00
2023-03-07T08:44:54.510Z,12.60
2023-03-07T08:47:22.312Z,13.00
2023-03-07T08:49:50.108Z,13.00
2023-03-07T08:52:18.021Z,13.00
2023-03-07T08:54:47.161Z,12.80
2023-03-07T08:57:15.036Z,12.60
2023-03-07T08:59:42.806Z,12.60
2023-03-07T09:02:11.942Z,12.80
2023-03-07T09:04:39.925Z,12.70
2023-03-07T09:07:07.774Z,12.70
2023-03-07T09:09:35.596Z,12.90
2023-03-07T09:12:05.154Z,12.60
2023-03-07T09:14:32.961Z,12.60
2023-03-07T09:17:00.761Z,12.70
2023-03-07T09:19:28.649Z,12.90
2023-03-07T09:21:56.505Z,13.00
2023-03-07T09:24:24.321Z,12.90
2023-03-07T09:26:52.808Z,13.00
2023-03-07T09:29:21.951Z,13.10
2023-03-07T09:31:50.859Z,12.70
2023-03-07T09:34:18.719Z,12.20
2023-03-07T09:36:46.549Z,12.40
2023-03-07T09:39:15.386Z,12.60
2023-03-07T09:42:03.533Z,12.80
2023-03-07T09:44:49.770Z,12.90
2023-03-07T09:48:06.357Z,12.50
2023-03-07T09:50:41.927Z,12.80
2023-03-07T09:53:17.167Z,12.80
2023-03-07T09:55:45.069Z,12.70
2023-03-07T09:58:19.468Z,12.70
2023-03-07T10:00:54.563Z,12.60
2023-03-07T10:03:29.732Z,12.80
2023-03-07T10:06:02.866Z,12.50
2023-03-07T10:08:33.005Z,12.50
2023-03-07T10:11:14.094Z,12.80
2023-03-07T10:13:55.345Z,12.90
2023-03-07T10:16:31.233Z,12.70
2023-03-07T10:19:09.635Z,13.00
2023-03-07T10:21:42.773Z,13.10
2023-03-07T10:24:47.944Z,12.90
2023-03-07T10:27:16.672Z,12.80
2023-03-07T10:29:47.880Z,12.60
2023-03-07T10:32:30.653Z,12.60
2023-03-07T10:35:02.618Z,12.90
2023-03-07T10:37:43.847Z,12.70
2023-03-07T10:40:19.679Z,12.70
2023-03-07T10:42:47.543Z,12.80
2023-03-07T10:45:16.365Z,13.00
2023-03-07T10:47:45.806Z,13.60
2023-03-07T10:50:27.886Z,13.50
2023-03-07T10:52:58.321Z,13.30
2023-03-07T10:55:41.520Z,13.30
2023-03-07T10:58:23.862Z,13.30
2023-03-07T11:01:16.997Z,13.00
2023-03-07T11:03:54.105Z,13.20
2023-03-07T11:06:33.569Z,13.30
2023-03-07T11:09:19.762Z,13.30
2023-03-07T11:11:57.623Z,13.10
2023-03-07T11:14:26.664Z,13.20
2023-03-07T11:16:56.594Z,13.20
2023-03-07T11:19:33.303Z,13.10
2023-03-07T11:22:03.503Z,13.20
2023-03-07T11:24:34.691Z,13.30
2023-03-07T11:27:02.570Z,13.20
2023-03-07T11:29:33.509Z,13.10
2023-03-07T11:32:11.752Z,13.10
2023-03-07T11:34:45.133Z,13.00
2023-03-07T11:37:27.906Z,13.10
2023-03-07T11:40:05.791Z,13.30
2023-03-07T11:42:38.261Z,13.30
2023-03-07T11:45:20.926Z,13.20
2023-03-07T11:47:56.604Z,13.30
2023-03-07T11:50:28.687Z,13.20
2023-03-07T11:53:33.348Z,13.10
2023-03-07T11:56:16.400Z,13.10
2023-03-07T11:58:58.488Z,13.20
2023-03-07T12:01:33.759Z,13.00
2023-03-07T12:04:33.999Z,13.10
2023-03-07T12:07:12.575Z,13.00
2023-03-07T12:09:52.194Z,13.20
2023-03-07T12:12:37.681Z,13.20
2023-03-07T12:15:18.868Z,13.20
2023-03-07T12:17:56.188Z,12.80
2023-03-07T12:20:31.749Z,13.20
2023-03-07T12:23:12.970Z,13.00
2023-03-07T12:25:44.190Z,13.20
2023-03-07T12:28:18.947Z,13.50
2023-03-07T12:30:56.883Z,13.10
2023-03-07T12:33:31.214Z,13.10
2023-03-07T12:36:03.967Z,13.10
2023-03-07T12:38:41.868Z,13.10
2023-03-07T12:41:24.279Z,12.90
2023-03-07T12:43:58.050Z,12.90
2023-03-07T12:46:33.898Z,13.30
2023-03-07T12:49:11.779Z,13.30
2023-03-07T12:51:43.915Z,13.30
2023-03-07T12:54:19.661Z,13.20
2023-03-07T12:56:54.335Z,13.40
2023-03-07T12:59:23.099Z,13.20
2023-03-07T13:01:56.276Z,13.50
2023-03-07T13:04:30.088Z,13.30
2023-03-07T13:07:06.878Z,13.60
2023-03-07T13:09:39.319Z,13.40
2023-03-07T13:12:31.120Z,13.30
2023-03-07T13:15:00.412Z,13.30
2023-03-07T13:17:57.636Z,13.10
2023-03-07T13:20:37.741Z,13.20
2023-03-07T13:23:36.476Z,13.20
2023-03-07T13:26:10.833Z,13.20
2023-03-07T13:28:48.649Z,13.20
2023-03-07T13:31:42.517Z,13.20
2023-03-07T13:34:48.118Z,13.10
2023-03-07T13:37:49.012Z,13.30
2023-03-07T13:40:48.505Z,13.10
2023-03-07T13:43:56.254Z,13.10
2023-03-07T13:46:55.526Z,12.90
2023-03-07T13:49:41.660Z,13.20
2023-03-07T13:52:36.548Z,12.90
2023-03-07T13:55:13.883Z,12.90
2023-03-07T13:57:44.577Z,12.80
2023-03-07T14:00:28.097Z,12.80
2023-03-07T14:02:57.634Z,13.00
2023-03-07T14:05:25.907Z,13.10
2023-03-07T14:07:54.434Z,12.80
2023-03-07T14:10:27.814Z,13.00
2023-03-07T14:13:18.155Z,13.20
2023-03-07T14:15:58.038Z,13.30
2023-03-07T14:18:40.429Z,13.00
2023-03-07T14:21:13.409Z,13.00
2023-03-07T14:24:21.219Z,12.90
2023-03-07T14:26:53.972Z,12.80
2023-03-07T14:29:23.166Z,13.10
2023-03-07T14:31:53.064Z,13.30
2023-03-07T14:34:27.882Z,13.00
2023-03-07T14:36:57.856Z,13.10
2023-03-07T14:39:29.995Z,13.20
2023-03-07T14:42:08.708Z,13.30
2023-03-07T14:44:56.445Z,12.90
2023-03-07T14:47:36.842Z,12.70
2023-03-07T14:50:13.442Z,12.80
2023-03-07T14:52:42.272Z,12.70
2023-03-07T14:55:17.600Z,12.90
2023-03-07T14:57:49.301Z,12.80
2023-03-07T15:00:25.548Z,12.60
2023-03-07T15:02:54.914Z,12.50
2023-03-07T15:05:26.624Z,12.60
2023-03-07T15:07:55.755Z,12.80
2023-03-07T15:10:27.718Z,12.80
2023-03-07T15:12:57.785Z,12.80
2023-03-07T15:15:31.901Z,12.80
2023-03-07T15:18:04.908Z,12.70
2023-03-07T15:20:34.993Z,12.50
2023-03-07T15:23:06.370Z,12.40
2023-03-07T15:25:38.597Z,12.50
2023-03-07T15:28:08.921Z,12.70
2023-03-07T15:30:39.021Z,12.50
2023-03-07T15:33:15.484Z,12.30
2023-03-07T15:35:45.266Z,12.50
2023-03-07T15:38:18.826Z,12.50
2023-03-07T15:40:46.930Z,12.60
2023-03-07T15:43:28.048Z,12.60
2023-03-07T15:46:05.757Z,12.60
2023-03-07T15:48:38.290Z,12.40
2023-03-07T15:51:17.420Z,12.50
2023-03-07T15:53:54.184Z,12.50
2023-03-07T15:56:25.613Z,12.50
2023-03-07T15:58:56.695Z,12.70
2023-03-07T16:01:26.331Z,12.50
2023-03-07T16:03:55.865Z,12.60
2023-03-07T16:06:35.920Z,12.70
2023-03-07T16:09:05.165Z,12.80
2023-03-07T16:11:33.606Z,12.80
2023-03-07T16:14:01.720Z,12.70
2023-03-07T16:16:31.457Z,12.90
2023-03-07T16:18:59.293Z,12.70
2023-03-07T16:21:28.042Z,12.30
2023-03-07T16:23:57.182Z,12.60
2023-03-07T16:26:25.910Z,12.50
2023-03-07T16:28:54.775Z,12.50
2023-03-07T16:31:22.756Z,12.70
2023-03-07T16:33:50.644Z,12.50
2023-03-07T16:36:19.400Z,12.70
2023-03-07T16:38:47.897Z,12.70
2023-03-07T16:41:18.801Z,12.70
2023-03-07T16:43:47.997Z,12.60
2023-03-07T16:46:18.670Z,12.50
2023-03-07T16:48:47.242Z,12.50
2023-03-07T16:51:17.710Z,12.70
2023-03-07T16:53:45.893Z,12.70
2023-03-07T16:56:22.097Z,12.70
2023-03-07T16:58:50.034Z,12.80
2023-03-07T17:01:17.832Z,12.90
2023-03-07T17:03:48.183Z,12.90
2023-03-07T17:06:17.750Z,12.80
2023-03-07T17:08:46.629Z,12.90
2023-03-07T17:11:22.236Z,12.80
2023-03-07T17:13:51.774Z,12.90
2023-03-07T17:16:20.806Z,12.90
2023-03-07T17:18:48.995Z,12.40
2023-03-07T17:21:19.422Z,12.70
2023-03-07T17:23:49.019Z,12.70
2023-03-07T17:26:25.777Z,12.80
2023-03-07T17:28:54.384Z,12.80
2023-03-07T17:31:22.303Z,12.80
2023-03-07T17:33:50.357Z,13.20
2023-03-07T17:36:18.226Z,13.60
2023-03-07T17:38:46.072Z,13.80
2023-03-07T17:41:13.885Z,14.10
2023-03-07T17:43:43.009Z,14.20
2023-03-07T17:46:12.020Z,14.30
2023-03-07T17:48:39.844Z,14.40
2023-03-07T17:51:09.267Z,14.40
2023-03-07T17:53:37.446Z,14.50
2023-03-07T17:56:09.426Z,14.60
2023-03-07T17:58:39.057Z,14.60
2023-03-07T18:01:11.018Z,14.60
2023-03-07T18:03:39.979Z,14.60
2023-03-07T18:06:10.681Z,14.60
2023-03-07T18:08:38.560Z,14.60
2023-03-07T18:11:09.366Z,14.60
2023-03-07T18:13:38.487Z,14.60
2023-03-07T18:16:08.301Z,14.60
2023-03-07T18:18:38.247Z,14.70
2023-03-07T18:21:09.056Z,14.60
2023-03-07T18:23:37.654Z,14.60
2023-03-07T18:26:07.223Z,14.70
2023-03-07T18:28:35.537Z,14.60
2023-03-07T18:31:05.698Z,14.60
2023-03-07T18:33:36.232Z,14.70
2023-03-07T18:36:05.504Z,14.60
2023-03-07T18:38:33.713Z,14.60
2023-03-07T18:41:06.168Z,14.60
2023-03-07T18:43:33.995Z,14.70
2023-03-07T18:46:03.785Z,14.90
2023-03-07T18:48:31.874Z,14.70
2023-03-07T18:51:02.910Z,14.90
2023-03-07T18:53:31.383Z,14.80
2023-03-07T18:56:03.090Z,14.90
2023-03-07T18:58:31.034Z,14.80
2023-03-07T19:00:58.904Z,14.80
2023-03-07T19:03:27.147Z,14.70
2023-03-07T19:05:54.914Z,14.90
2023-03-07T19:08:24.037Z,14.70
2023-03-07T19:10:51.809Z,14.80
2023-03-07T19:13:19.655Z,14.70
2023-03-07T19:15:47.432Z,14.70
2023-03-07T19:18:15.220Z,14.80
2023-03-07T19:20:43.303Z,14.70
2023-03-07T19:23:11.077Z,14.70
2023-03-07T19:25:40.174Z,14.80
2023-03-07T19:28:08.713Z,14.80
2023-03-07T19:30:36.957Z,14.70
2023-03-07T19:33:04.837Z,14.70
2023-03-07T19:35:33.022Z,14.70
2023-03-07T19:38:00.844Z,14.80
2023-03-07T19:40:28.695Z,14.80
2023-03-07T19:42:57.806Z,14.70
2023-03-07T19:45:26.929Z,14.70
2023-03-07T19:47:54.712Z,14.70
2023-03-07T19:50:22.541Z,14.60
2023-03-07T19:52:50.314Z,14.60
2023-03-07T19:55:18.276Z,14.60
2023-03-07T19:57:46.798Z,14.60
2023-03-07T20:00:16.980Z,14.60
2023-03-07T20:02:44.753Z,14.60
2023-03-07T20:05:12.613Z,14.70
2023-03-07T20:07:40.655Z,14.70
2023-03-07T20:10:09.387Z,14.60
2023-03-07T20:12:37.176Z,14.60
2023-03-07T20:15:05.405Z,14.70
2023-03-07T20:17:35.057Z,14.60
2023-03-07T20:20:04.386Z,14.60
2023-03-07T20:22:32.190Z,14.60
2023-03-07T20:25:00.047Z,14.60
2023-03-07T20:27:27.889Z,14.50
2023-03-07T20:29:56.358Z,14.60
2023-03-07T20:32:24.217Z,14.60
2023-03-07T20:34:53.901Z,14.50
2023-03-07T20:37:21.674Z,14.50
2023-03-07T20:39:49.453Z,14.50
2023-03-07T20:42:17.249Z,14.60
2023-03-07T20:44:45.024Z,14.60
2023-03-07T20:47:12.812Z,14.50
2023-03-07T20:49:40.637Z,14.50
2023-03-07T20:52:09.789Z,14.60
2023-03-07T20:54:37.760Z,14.60
2023-03-07T20:57:05.630Z,14.60
2023-03-07T20:59:33.494Z,14.60
2023-03-07T21:02:01.366Z,14.60
2023-03-07T21:04:29.227Z,14.60
2023-03-07T21:06:57.013Z,14.60
2023-03-07T21:09:26.155Z,14.50
2023-03-07T21:11:53.955Z,14.50
2023-03-07T21:14:21.901Z,14.50
2023-03-07T21:16:49.784Z,14.60
2023-03-07T21:19:17.589Z,14.50
2023-03-07T21:21:45.608Z,14.50
2023-03-07T21:24:15.366Z,14.50
2023-03-07T21:26:44.582Z,14.60
2023-03-07T21:29:13.845Z,14.60
2023-03-07T21:31:41.692Z,14.60
2023-03-07T21:34:13.857Z,14.60
2023-03-07T21:36:41.900Z,14.60
2023-03-07T21:39:10.012Z,14.60
2023-03-07T21:41:38.267Z,14.60
2023-03-07T21:44:07.615Z,14.60
2023-03-07T21:46:35.510Z,14.60
2023-03-07T21:49:03.369Z,14.60
2023-03-07T21:51:31.212Z,14.50
2023-03-07T21:53:59.383Z,14.50
2023-03-07T21:56:27.375Z,14.50
2023-03-07T21:58:55.367Z,14.50
2023-03-07T22:01:26.899Z,14.60
2023-03-07T22:03:56.156Z,14.60
2023-03-07T22:06:25.193Z,14.50
2023-03-07T22:08:53.016Z,14.50
2023-03-07T22:11:20.947Z,14.50
2023-03-07T22:13:49.012Z,14.50
2023-03-07T22:16:20.286Z,14.50
2023-03-07T22:18:54.254Z,14.50
2023-03-07T22:21:24.776Z,14.50
2023-03-07T22:23:57.357Z,14.40
2023-03-07T22:26:25.384Z,14.40
2023-03-07T22:28:53.825Z,14.40
2023-03-07T22:31:21.647Z,14.40
2023-03-07T22:33:49.501Z,14.30
2023-03-07T22:36:18.834Z,14.40
2023-03-07T22:38:46.605Z,14.40
2023-03-07T22:41:16.581Z,14.40
2023-03-07T22:43:44.649Z,14.40
2023-03-07T22:46:13.433Z,14.40
2023-03-07T22:48:41.414Z,14.40
2023-03-07T22:51:13.269Z,14.40
2023-03-07T22:53:42.389Z,14.40
2023-03-07T22:56:15.345Z,14.40
2023-03-07T22:58:43.160Z,14.40
2023-03-07T23:01:15.352Z,14.50
2023-03-07T23:03:44.580Z,14.50
2023-03-07T23:06:12.810Z,14.50
2023-03-07T23:08:45.238Z,14.60
2023-03-07T23:11:13.852Z,14.60
2023-03-07T23:13:42.418Z,14.60
2023-03-07T23:16:12.255Z,14.60
2023-03-07T23:18:41.617Z,14.60
2023-03-07T23:21:11.737Z,14.50
2023-03-07T23:23:40.182Z,14.40
2023-03-07T23:26:09.745Z,14.40
2023-03-07T23:28:37.523Z,14.40
2023-03-07T23:31:05.491Z,14.40
2023-03-07T23:33:33.744Z,14.50
2023-03-07T23:36:01.630Z,14.40
2023-03-07T23:38:29.453Z,14.50
2023-03-07T23:41:00.299Z,14.40
2023-03-07T23:43:29.497Z,14.40
2023-03-07T23:45:57.276Z,14.40
2023-03-07T23:48:25.093Z,14.40
2023-03-07T23:50:52.967Z,14.40
2023-03-07T23:53:20.761Z,14.40
2023-03-07T23:55:48.797Z,14.40
2023-03-07T23:58:16.678Z,14.40
